createdAt,value
2022-08-22T00:02:26.735Z,9.89
2022-08-22T00:02:42.423Z,7.41
2022-08-22T00:02:47.466Z,8.11
2022-08-22T00:02:47.891Z,7.40
2022-08-22T00:02:54.353Z,8.46
2022-08-22T00:02:58.168Z,9.60
2022-08-22T00:03:00.025Z,8.26
2022-08-22T00:05:22.703Z,9.98
2022-08-22T00:08:01.840Z,10.02
2022-08-22T00:10:44.617Z,9.56
2022-08-22T00:13:38.007Z,8.89
2022-08-22T00:16:24.463Z,9.34
2022-08-22T00:19:03.599Z,9.25
2022-08-22T00:21:47.452Z,8.93
2022-08-22T00:24:21.231Z,8.84
2022-08-22T00:26:49.061Z,8.75
2022-08-22T00:29:23.966Z,8.64
2022-08-22T00:32:01.712Z,9.58
2022-08-22T00:34:29.338Z,10.13
2022-08-22T00:37:14.831Z,10.48
2022-08-22T00:40:03.333Z,10.43
2022-08-22T00:42:34.216Z,9.79
2022-08-22T00:45:20.609Z,9.78
2022-08-22T00:47:51.567Z,9.86
2022-08-22T00:50:19.175Z,12.28
2022-08-22T00:52:56.207Z,11.02
2022-08-22T00:55:44.159Z,10.97
2022-08-22T00:58:26.738Z,11.44
2022-08-22T01:01:03.480Z,11.94
2022-08-22T01:03:37.717Z,11.37
2022-08-22T01:06:33.096Z,10.87
2022-08-22T01:09:09.962Z,11.85
2022-08-22T01:11:49.796Z,11.51
2022-08-22T01:14:20.588Z,11.38
2022-08-22T01:17:23.067Z,11.32
2022-08-22T01:20:09.573Z,10.67
2022-08-22T01:23:09.717Z,10.67
2022-08-22T01:25:46.198Z,10.23
2022-08-22T01:28:41.986Z,10.47
2022-08-22T01:31:29.426Z,10.72
2022-08-22T01:33:57.140Z,10.42
2022-08-22T01:36:27.501Z,10.47
2022-08-22T01:39:13.980Z,11.06
2022-08-22T01:41:50.507Z,11.12
2022-08-22T01:44:30.094Z,11.00
2022-08-22T01:47:03.561Z,11.48
2022-08-22T01:49:34.472Z,11.37
2022-08-22T01:52:09.600Z,11.44
2022-08-22T01:54:46.080Z,10.77
2022-08-22T01:57:14.248Z,10.73
2022-08-22T01:59:48.672Z,10.78
2022-08-22T02:02:35.162Z,10.84
2022-08-22T02:05:19.298Z,11.02
2022-08-22T02:08:03.681Z,10.88
2022-08-22T02:10:43.750Z,10.16
2022-08-22T02:13:14.439Z,10.96
2022-08-22T02:15:59.781Z,10.62
2022-08-22T02:18:33.672Z,10.97
2022-08-22T02:21:22.778Z,10.93
2022-08-22T02:24:16.755Z,10.77
2022-08-22T02:26:50.119Z,10.32
2022-08-22T02:29:23.667Z,10.40
2022-08-22T02:31:58.445Z,10.13
2022-08-22T02:34:44.763Z,10.10
2022-08-22T02:37:31.786Z,9.17
2022-08-22T02:40:02.961Z,8.98
2022-08-22T02:42:40.007Z,8.75
2022-08-22T02:45:26.591Z,8.40
2022-08-22T02:48:13.886Z,8.24
2022-08-22T02:51:02.000Z,7.62
2022-08-22T02:53:46.194Z,7.83
2022-08-22T02:56:22.782Z,7.50
2022-08-22T02:59:10.274Z,7.26
2022-08-22T03:01:43.261Z,7.30
2022-08-22T03:04:29.774Z,7.09
2022-08-22T03:07:03.230Z,7.08
2022-08-22T03:09:35.313Z,7.24
2022-08-22T03:12:17.875Z,7.10
2022-08-22T03:15:06.446Z,7.06
2022-08-22T03:17:54.688Z,6.75
2022-08-22T03:20:45.919Z,6.73
2022-08-22T03:23:13.501Z,7.03
2022-08-22T03:25:52.890Z,6.69
2022-08-22T03:28:59.072Z,7.52
2022-08-22T03:31:29.144Z,7.22
2022-08-22T03:34:29.119Z,6.63
2022-08-22T03:37:03.108Z,6.52
2022-08-22T03:39:49.594Z,6.29
2022-08-22T03:42:23.413Z,6.47
2022-08-22T03:44:50.990Z,6.28
2022-08-22T03:47:28.592Z,6.07
2022-08-22T03:49:59.612Z,6.19
2022-08-22T03:52:27.647Z,6.80
2022-08-22T03:54:55.177Z,6.81
2022-08-22T03:57:41.421Z,6.73
2022-08-22T04:00:10.600Z,6.62
2022-08-22T04:02:43.578Z,6.60
2022-08-22T04:05:30.216Z,6.43
2022-08-22T04:08:00.728Z,6.62
2022-08-22T04:10:47.164Z,6.71
2022-08-22T04:13:27.674Z,6.10
2022-08-22T04:16:13.370Z,6.25
2022-08-22T04:18:53.130Z,6.26
2022-08-22T04:21:25.856Z,6.13
2022-08-22T04:23:56.470Z,6.44
2022-08-22T04:26:30.207Z,6.02
2022-08-22T04:29:03.523Z,6.06
2022-08-22T04:31:40.642Z,5.95
2022-08-22T04:34:18.156Z,5.93
2022-08-22T04:36:57.859Z,6.23
2022-08-22T04:39:40.431Z,5.91
2022-08-22T04:42:32.851Z,5.80
2022-08-22T04:45:10.086Z,5.97
2022-08-22T04:47:41.179Z,6.02
2022-08-22T04:50:11.773Z,6.15
2022-08-22T04:53:05.964Z,6.17
2022-08-22T04:55:46.321Z,6.04
2022-08-22T04:58:17.204Z,5.96
2022-08-22T05:01:03.507Z,5.99
2022-08-22T05:03:34.873Z,6.22
2022-08-22T05:06:05.208Z,6.13
2022-08-22T05:08:36.213Z,6.09
2022-08-22T05:11:09.975Z,5.88
2022-08-22T05:13:43.076Z,5.85
2022-08-22T05:16:15.691Z,5.66
2022-08-22T05:18:47.259Z,6.51
2022-08-22T05:21:18.119Z,6.44
2022-08-22T05:23:50.207Z,5.93
2022-08-22T05:26:19.753Z,6.66
2022-08-22T05:28:53.317Z,6.69
2022-08-22T05:31:26.427Z,6.60
2022-08-22T05:34:02.574Z,6.76
2022-08-22T05:36:43.293Z,6.79
2022-08-22T05:39:17.609Z,7.23
2022-08-22T05:41:46.464Z,7.12
2022-08-22T05:44:26.069Z,7.62
2022-08-22T05:46:56.650Z,7.32
2022-08-22T05:49:40.462Z,7.19
2022-08-22T05:52:17.629Z,7.52
2022-08-22T05:54:57.778Z,7.48
2022-08-22T05:57:33.694Z,7.28
2022-08-22T06:00:05.657Z,7.06
2022-08-22T06:02:48.704Z,7.39
2022-08-22T06:05:22.184Z,7.01
2022-08-22T06:07:51.408Z,7.46
2022-08-22T06:10:29.718Z,7.22
2022-08-22T06:13:24.742Z,7.19
2022-08-22T06:15:53.142Z,6.63
2022-08-22T06:18:24.609Z,6.69
2022-08-22T06:20:59.779Z,7.03
2022-08-22T06:23:40.218Z,6.72
2022-08-22T06:26:20.588Z,7.14
2022-08-22T06:28:55.270Z,6.52
2022-08-22T06:31:29.673Z,6.80
2022-08-22T06:34:13.273Z,6.40
2022-08-22T06:36:52.513Z,6.39
2022-08-22T06:39:23.657Z,6.11
2022-08-22T06:41:51.945Z,6.05
2022-08-22T06:44:27.667Z,6.25
2022-08-22T06:46:58.386Z,6.45
2022-08-22T06:49:28.033Z,6.70
2022-08-22T06:52:01.394Z,6.95
2022-08-22T06:54:34.512Z,6.95
2022-08-22T06:57:05.114Z,6.90
2022-08-22T06:59:37.340Z,6.79
2022-08-22T07:02:08.042Z,6.48
2022-08-22T07:04:37.057Z,6.32
2022-08-22T07:07:05.589Z,6.31
2022-08-22T07:09:38.535Z,6.13
2022-08-22T07:12:18.306Z,5.95
2022-08-22T07:14:53.393Z,5.88
2022-08-22T07:17:24.390Z,5.71
2022-08-22T07:19:59.419Z,5.87
2022-08-22T07:22:30.510Z,5.18
2022-08-22T07:25:03.039Z,5.25
2022-08-22T07:27:37.524Z,5.21
2022-08-22T07:30:10.156Z,5.74
2022-08-22T07:32:47.595Z,5.63
2022-08-22T07:35:15.852Z,5.79
2022-08-22T07:37:46.269Z,5.05
2022-08-22T07:40:16.973Z,5.16
2022-08-22T07:42:50.547Z,5.01
2022-08-22T07:45:33.472Z,4.72
2022-08-22T07:48:10.003Z,4.61
2022-08-22T07:50:44.889Z,5.10
2022-08-22T07:53:21.342Z,4.60
2022-08-22T07:55:50.037Z,4.62
2022-08-22T07:58:20.859Z,4.63
2022-08-22T08:00:49.450Z,4.64
2022-08-22T08:03:21.651Z,4.68
2022-08-22T08:05:49.982Z,4.66
2022-08-22T08:08:23.028Z,5.33
2022-08-22T08:10:53.498Z,4.75
2022-08-22T08:13:25.570Z,5.15
2022-08-22T08:15:53.507Z,5.30
2022-08-22T08:18:25.943Z,5.87
2022-08-22T08:20:57.775Z,5.98
2022-08-22T08:23:29.861Z,5.49
2022-08-22T08:26:06.078Z,5.10
2022-08-22T08:28:39.331Z,5.76
2022-08-22T08:31:11.053Z,5.74
2022-08-22T08:33:41.354Z,5.59
2022-08-22T08:36:15.516Z,5.16
2022-08-22T08:38:53.262Z,5.32
2022-08-22T08:41:39.663Z,5.75
2022-08-22T08:44:10.343Z,5.50
2022-08-22T08:46:55.268Z,5.83
2022-08-22T08:49:26.179Z,5.85
2022-08-22T08:52:04.176Z,5.50
2022-08-22T08:54:32.035Z,4.95
2022-08-22T08:56:59.721Z,5.03
2022-08-22T08:59:27.554Z,5.25
2022-08-22T09:02:23.441Z,5.21
2022-08-22T09:04:57.618Z,5.06
2022-08-22T09:07:45.490Z,4.80
2022-08-22T09:10:31.066Z,5.18
2022-08-22T09:13:11.694Z,4.89
2022-08-22T09:15:42.171Z,4.62
2022-08-22T09:18:28.171Z,4.79
2022-08-22T09:21:40.434Z,5.01
2022-08-22T09:24:52.891Z,4.81
2022-08-22T09:27:21.853Z,4.38
2022-08-22T09:29:59.885Z,4.64
2022-08-22T09:32:46.547Z,4.92
2022-08-22T09:35:32.279Z,4.66
2022-08-22T09:38:29.346Z,4.31
2022-08-22T09:41:09.834Z,4.11
2022-08-22T09:43:48.463Z,3.54
2022-08-22T09:46:48.326Z,3.56
2022-08-22T09:49:25.420Z,3.55
2022-08-22T09:52:15.480Z,3.58
2022-08-22T09:54:49.532Z,4.02
2022-08-22T09:57:36.084Z,4.60
2022-08-22T10:00:22.828Z,4.63
2022-08-22T10:03:11.421Z,4.22
2022-08-22T10:05:45.488Z,3.49
2022-08-22T10:08:19.843Z,3.26
2022-08-22T10:11:07.784Z,3.01
2022-08-22T10:13:35.949Z,2.74
2022-08-22T10:16:06.602Z,2.71
2022-08-22T10:18:37.548Z,2.69
2022-08-22T10:21:18.237Z,2.48
2022-08-22T10:23:55.106Z,2.45
2022-08-22T10:26:41.545Z,2.81
2022-08-22T10:29:09.207Z,2.85
2022-08-22T10:31:52.750Z,2.73
2022-08-22T10:34:37.946Z,2.66
2022-08-22T10:37:26.289Z,2.65
2022-08-22T10:40:05.036Z,2.66
2022-08-22T10:42:35.347Z,2.70
2022-08-22T10:45:23.986Z,2.69
2022-08-22T10:48:49.855Z,2.58
2022-08-22T10:51:37.083Z,2.55
2022-08-22T10:54:20.279Z,2.65
2022-08-22T10:56:54.747Z,2.42
2022-08-22T10:59:26.349Z,2.53
2022-08-22T11:01:55.711Z,2.72
2022-08-22T11:04:45.178Z,3.02
2022-08-22T11:07:12.786Z,2.89
2022-08-22T11:09:43.282Z,2.72
2022-08-22T11:12:34.832Z,2.84
2022-08-22T11:15:26.234Z,2.87
2022-08-22T11:18:13.083Z,2.99
2022-08-22T11:20:53.696Z,2.76
2022-08-22T11:23:40.664Z,2.69
2022-08-22T11:26:13.421Z,2.67
2022-08-22T11:29:11.299Z,3.06
2022-08-22T11:32:05.668Z,3.25
2022-08-22T11:34:44.842Z,2.82
2022-08-22T11:37:18.991Z,3.20
2022-08-22T11:40:00.888Z,3.07
2022-08-22T11:42:35.787Z,2.98
2022-08-22T11:45:22.054Z,3.68
2022-08-22T11:48:12.634Z,4.20
2022-08-22T11:50:48.991Z,3.61
2022-08-22T11:53:16.752Z,4.20
2022-08-22T11:55:55.563Z,3.95
2022-08-22T11:58:32.251Z,3.01
2022-08-22T12:01:04.014Z,2.89
2022-08-22T12:03:55.619Z,2.87
2022-08-22T12:06:42.453Z,2.85
2022-08-22T12:09:10.119Z,2.58
2022-08-22T12:11:37.627Z,2.44
2022-08-22T12:14:15.812Z,2.63
2022-08-22T12:17:03.628Z,2.54
2022-08-22T12:19:58.843Z,2.78
2022-08-22T12:22:40.036Z,2.45
2022-08-22T12:25:30.553Z,2.96
2022-08-22T12:28:11.624Z,2.97
2022-08-22T12:30:56.591Z,3.28
2022-08-22T12:33:42.917Z,3.86
2022-08-22T12:36:17.809Z,3.37
2022-08-22T12:38:48.766Z,3.01
2022-08-22T12:41:35.528Z,2.97
2022-08-22T12:44:06.257Z,3.17
2022-08-22T12:47:05.747Z,2.70
2022-08-22T12:49:53.620Z,2.77
2022-08-22T12:52:25.051Z,2.68
2022-08-22T12:54:55.433Z,2.60
2022-08-22T12:57:42.605Z,2.63
2022-08-22T13:00:32.003Z,2.63
2022-08-22T13:03:04.631Z,2.41
2022-08-22T13:05:41.032Z,2.54
2022-08-22T13:08:13.379Z,2.48
2022-08-22T13:10:51.910Z,2.79
2022-08-22T13:13:56.529Z,2.45
2022-08-22T13:16:34.539Z,2.65
2022-08-22T13:19:13.680Z,2.83
2022-08-22T13:21:49.614Z,2.82
2022-08-22T13:24:38.250Z,3.01
2022-08-22T13:27:31.070Z,2.62
2022-08-22T13:30:01.106Z,2.75
2022-08-22T13:32:34.865Z,2.85
2022-08-22T13:35:04.157Z,3.02
2022-08-22T13:37:36.227Z,2.80
2022-08-22T13:40:25.643Z,2.82
2022-08-22T13:43:02.319Z,2.85
2022-08-22T13:45:33.246Z,2.89
2022-08-22T13:48:08.862Z,2.99
2022-08-22T13:50:57.344Z,2.77
2022-08-22T13:53:39.529Z,3.29
2022-08-22T13:56:15.767Z,3.05
2022-08-22T13:58:47.513Z,2.53
2022-08-22T14:01:28.375Z,2.46
2022-08-22T14:03:56.671Z,2.70
2022-08-22T14:06:37.248Z,2.57
2022-08-22T14:09:17.361Z,2.26
2022-08-22T14:12:23.047Z,2.54
2022-08-22T14:14:59.995Z,2.57
2022-08-22T14:17:36.687Z,2.37
2022-08-22T14:20:13.713Z,2.81
2022-08-22T14:23:22.458Z,2.83
2022-08-22T14:25:52.152Z,2.93
2022-08-22T14:28:32.406Z,2.60
2022-08-22T14:31:08.517Z,2.63
2022-08-22T14:34:02.151Z,2.55
2022-08-22T14:36:43.012Z,2.63
2022-08-22T14:39:35.463Z,2.87
2022-08-22T14:42:14.340Z,3.07
2022-08-22T14:45:01.896Z,2.69
2022-08-22T14:48:14.018Z,2.20
2022-08-22T14:50:43.684Z,3.73
2022-08-22T14:53:11.364Z,4.12
2022-08-22T14:55:42.102Z,6.35
2022-08-22T14:58:17.462Z,2.73
2022-08-22T15:00:56.219Z,5.18
2022-08-22T15:03:32.849Z,4.52
2022-08-22T15:06:06.008Z,16.92
2022-08-22T15:08:48.376Z,12.10
2022-08-22T15:11:22.988Z,4.59
2022-08-22T15:13:57.859Z,3.81
2022-08-22T15:16:54.947Z,10.79
2022-08-22T15:19:35.533Z,7.83
2022-08-22T15:22:08.902Z,7.24
2022-08-22T15:24:45.619Z,3.97
2022-08-22T15:27:17.742Z,3.45
2022-08-22T15:29:49.794Z,4.29
2022-08-22T15:32:26.629Z,9.87
2022-08-22T15:35:04.470Z,5.98
2022-08-22T15:37:35.746Z,11.41
2022-08-22T15:40:13.474Z,6.89
2022-08-22T15:42:47.320Z,6.39
2022-08-22T15:45:29.694Z,6.20
2022-08-22T15:48:00.435Z,7.01
2022-08-22T15:50:37.991Z,6.81
2022-08-22T15:53:21.216Z,4.76
2022-08-22T15:56:08.759Z,5.01
2022-08-22T15:58:40.285Z,5.60
2022-08-22T16:01:20.668Z,5.28
2022-08-22T16:04:02.869Z,4.13
2022-08-22T16:06:39.498Z,3.98
2022-08-22T16:09:30.426Z,4.30
2022-08-22T16:12:01.763Z,3.94
2022-08-22T16:14:35.596Z,3.81
2022-08-22T16:17:08.082Z,4.14
2022-08-22T16:19:35.894Z,3.90
2022-08-22T16:22:06.159Z,3.49
2022-08-22T16:24:54.815Z,3.53
2022-08-22T16:27:24.940Z,3.71
2022-08-22T16:30:02.172Z,3.62
2022-08-22T16:32:30.123Z,3.57
2022-08-22T16:34:57.718Z,3.67
2022-08-22T16:37:25.319Z,3.63
2022-08-22T16:39:58.952Z,2.95
2022-08-22T16:42:34.453Z,3.41
2022-08-22T16:45:02.048Z,3.39
2022-08-22T16:47:36.210Z,3.46
2022-08-22T16:50:06.819Z,3.71
2022-08-22T16:52:37.667Z,3.38
2022-08-22T16:55:25.576Z,3.69
2022-08-22T16:58:12.094Z,3.28
2022-08-22T17:00:57.999Z,3.82
2022-08-22T17:03:44.619Z,3.74
2022-08-22T17:06:12.191Z,3.60
2022-08-22T17:08:57.005Z,3.97
2022-08-22T17:11:33.998Z,3.74
2022-08-22T17:14:27.929Z,4.00
2022-08-22T17:17:10.606Z,3.86
2022-08-22T17:19:54.843Z,3.44
2022-08-22T17:22:25.976Z,4.13
2022-08-22T17:24:56.373Z,4.12
2022-08-22T17:27:38.554Z,4.51
2022-08-22T17:30:09.668Z,4.41
2022-08-22T17:32:47.313Z,4.08
2022-08-22T17:35:26.807Z,3.80
2022-08-22T17:38:18.078Z,4.07
2022-08-22T17:40:58.402Z,4.82
2022-08-22T17:43:33.447Z,3.94
2022-08-22T17:46:15.967Z,3.75
2022-08-22T17:48:49.435Z,3.91
2022-08-22T17:51:28.299Z,4.10
2022-08-22T17:54:06.198Z,4.33
2022-08-22T17:56:46.300Z,5.65
2022-08-22T17:59:24.513Z,5.29
2022-08-22T18:02:00.442Z,4.41
2022-08-22T18:04:31.185Z,4.87
2022-08-22T18:07:16.454Z,5.22
2022-08-22T18:10:04.866Z,4.61
2022-08-22T18:12:52.310Z,5.08
2022-08-22T18:15:29.094Z,4.33
2022-08-22T18:18:04.790Z,4.24
2022-08-22T18:20:51.595Z,4.30
2022-08-22T18:23:41.814Z,4.59
2022-08-22T18:26:09.952Z,4.57
2022-08-22T18:28:45.126Z,4.63
2022-08-22T18:31:23.067Z,4.59
2022-08-22T18:33:57.974Z,4.79
2022-08-22T18:36:36.145Z,4.90
2022-08-22T18:39:20.242Z,4.78
2022-08-22T18:41:50.718Z,4.93
2022-08-22T18:44:24.636Z,4.65
2022-08-22T18:46:54.752Z,4.85
2022-08-22T18:49:22.506Z,4.98
2022-08-22T18:52:08.397Z,5.25
2022-08-22T18:54:48.559Z,5.26
2022-08-22T18:57:31.543Z,5.56
2022-08-22T19:00:16.715Z,5.43
2022-08-22T19:02:51.121Z,5.21
2022-08-22T19:05:34.616Z,5.50
2022-08-22T19:08:20.877Z,5.40
2022-08-22T19:11:11.811Z,5.90
2022-08-22T19:14:06.047Z,5.47
2022-08-22T19:16:33.595Z,5.84
2022-08-22T19:19:47.371Z,6.08
2022-08-22T19:22:20.845Z,5.68
2022-08-22T19:25:09.069Z,5.63
2022-08-22T19:27:40.457Z,5.80
2022-08-22T19:30:28.389Z,5.69
2022-08-22T19:32:59.432Z,5.73
2022-08-22T19:36:03.625Z,6.04
2022-08-22T19:38:50.034Z,5.92
2022-08-22T19:41:36.934Z,6.47
2022-08-22T19:44:05.130Z,5.84
2022-08-22T19:46:38.388Z,6.01
2022-08-22T19:49:21.189Z,6.52
2022-08-22T19:52:02.850Z,6.13
2022-08-22T19:54:33.653Z,6.81
2022-08-22T19:57:01.421Z,6.32
2022-08-22T19:59:38.154Z,5.41
2022-08-22T20:02:26.304Z,6.18
2022-08-22T20:05:03.861Z,5.61
2022-08-22T20:07:45.610Z,5.35
2022-08-22T20:10:16.048Z,5.20
2022-08-22T20:12:43.679Z,6.02
2022-08-22T20:15:18.768Z,6.58
2022-08-22T20:18:11.696Z,6.04
2022-08-22T20:20:38.350Z,5.87
2022-08-22T20:23:05.874Z,5.86
2022-08-22T20:25:45.839Z,5.57
2022-08-22T20:28:22.299Z,5.63
2022-08-22T20:30:56.321Z,5.70
2022-08-22T20:33:27.924Z,5.69
2022-08-22T20:35:59.245Z,5.35
2022-08-22T20:38:32.461Z,5.53
2022-08-22T20:41:32.402Z,5.53
2022-08-22T20:44:18.664Z,5.32
2022-08-22T20:46:53.431Z,4.99
2022-08-22T20:49:24.125Z,4.92
2022-08-22T20:51:54.377Z,4.67
2022-08-22T20:54:24.221Z,4.78
2022-08-22T20:56:54.701Z,5.10
2022-08-22T20:59:22.667Z,5.10
2022-08-22T21:02:05.142Z,5.30
2022-08-22T21:04:42.483Z,5.03
2022-08-22T21:07:10.669Z,5.38
2022-08-22T21:10:21.718Z,5.99
2022-08-22T21:13:10.957Z,5.58
2022-08-22T21:15:41.011Z,5.31
2022-08-22T21:18:11.019Z,5.90
2022-08-22T21:20:39.748Z,5.92
2022-08-22T21:23:15.966Z,5.71
2022-08-22T21:25:49.302Z,5.56
2022-08-22T21:28:27.845Z,5.57
2022-08-22T21:30:56.176Z,7.85
2022-08-22T21:33:25.401Z,5.73
2022-08-22T21:35:58.070Z,5.69
2022-08-22T21:38:51.811Z,5.30
2022-08-22T21:42:17.853Z,5.27
2022-08-22T21:45:20.925Z,5.69
2022-08-22T21:48:13.652Z,5.53
2022-08-22T21:51:06.409Z,5.29
2022-08-22T21:54:18.182Z,5.38
2022-08-22T21:57:10.878Z,5.96
2022-08-22T22:00:05.712Z,5.41
2022-08-22T22:03:06.531Z,5.64
2022-08-22T22:06:00.893Z,5.56
2022-08-22T22:08:54.998Z,5.99
2022-08-22T22:11:47.823Z,5.63
2022-08-22T22:14:40.927Z,5.82
2022-08-22T22:17:33.905Z,5.83
2022-08-22T22:20:27.043Z,5.70
2022-08-22T22:23:20.971Z,6.13
2022-08-22T22:25:49.348Z,6.56
2022-08-22T22:28:38.176Z,38.90
2022-08-22T22:31:06.194Z,6.86
2022-08-22T22:33:35.634Z,6.92
2022-08-22T22:36:06.262Z,6.33
2022-08-22T22:38:34.102Z,6.97
2022-08-22T22:41:01.754Z,6.95
2022-08-22T22:43:29.521Z,7.33
2022-08-22T22:45:59.770Z,6.94
2022-08-22T22:48:27.451Z,7.21
2022-08-22T22:50:55.373Z,7.14
2022-08-22T22:53:33.779Z,7.36
2022-08-22T22:56:09.165Z,7.12
2022-08-22T22:58:37.523Z,7.46
2022-08-22T23:01:08.246Z,7.37
2022-08-22T23:03:35.947Z,7.54
2022-08-22T23:06:03.597Z,7.89
2022-08-22T23:08:31.197Z,8.01
2022-08-22T23:10:58.812Z,7.45
2022-08-22T23:13:26.425Z,7.78
2022-08-22T23:15:54.091Z,7.72
2022-08-22T23:18:30.179Z,8.10
2022-08-22T23:20:58.297Z,7.65
2022-08-22T23:23:25.909Z,7.62
2022-08-22T23:25:53.539Z,7.51
2022-08-22T23:28:21.570Z,7.30
2022-08-22T23:30:49.466Z,7.38
2022-08-22T23:33:17.133Z,7.47
2022-08-22T23:35:44.761Z,7.94
2022-08-22T23:38:12.366Z,8.26
2022-08-22T23:40:39.978Z,8.78
2022-08-22T23:43:07.569Z,8.83
2022-08-22T23:45:35.334Z,9.08
2022-08-22T23:48:03.032Z,8.90
2022-08-22T23:50:31.595Z,9.46
2022-08-22T23:52:59.290Z,9.58
2022-08-22T23:55:26.962Z,10.57
2022-08-22T23:57:54.717Z,11.26
